createdAt,value
2023-03-07T00:01:25.048Z,16.54
2023-03-07T00:03:52.686Z,16.55
2023-03-07T00:06:20.117Z,16.54
2023-03-07T00:08:55.729Z,16.53
2023-03-07T00:11:23.015Z,16.54
2023-03-07T00:13:50.735Z,16.55
2023-03-07T00:16:21.179Z,16.54
2023-03-07T00:18:49.489Z,16.56
2023-03-07T00:21:20.483Z,16.54
2023-03-07T00:23:48.589Z,16.53
2023-03-07T00:26:19.102Z,16.53
2023-03-07T00:28:48.630Z,16.54
2023-03-07T00:31:16.352Z,16.53
2023-03-07T00:33:44.352Z,16.52
2023-03-07T00:36:16.876Z,16.52
2023-03-07T00:38:45.647Z,16.53
2023-03-07T00:41:18.216Z,16.52
2023-03-07T00:43:47.190Z,16.52
2023-03-07T00:46:15.904Z,16.53
2023-03-07T00:48:44.308Z,16.51
2023-03-07T00:51:13.668Z,16.52
2023-03-07T00:53:41.626Z,16.51
2023-03-07T00:56:12.941Z,16.53
2023-03-07T00:58:40.492Z,16.51
2023-03-07T01:01:09.729Z,16.51
2023-03-07T01:03:38.799Z,16.50
2023-03-07T01:06:09.411Z,16.49
2023-03-07T01:08:37.196Z,16.51
2023-03-07T01:11:06.271Z,16.51
2023-03-07T01:13:35.348Z,16.50
2023-03-07T01:16:14.191Z,16.50
2023-03-07T01:18:42.034Z,16.52
2023-03-07T01:21:14.576Z,16.49
2023-03-07T01:23:42.561Z,16.51
2023-03-07T01:26:21.139Z,16.50
2023-03-07T01:28:50.621Z,16.50
2023-03-07T01:31:18.005Z,16.50
2023-03-07T01:33:50.979Z,16.48
2023-03-07T01:36:30.448Z,16.47
2023-03-07T01:39:02.673Z,16.47
2023-03-07T01:41:32.254Z,16.48
2023-03-07T01:44:10.806Z,16.47
2023-03-07T01:46:48.147Z,16.47
2023-03-07T01:49:23.818Z,16.48
2023-03-07T01:51:58.281Z,16.48
2023-03-07T01:54:26.864Z,16.48
2023-03-07T01:56:54.841Z,16.48
2023-03-07T01:59:29.618Z,16.47
2023-03-07T02:02:01.121Z,16.48
2023-03-07T02:04:36.724Z,16.47
2023-03-07T02:07:05.012Z,16.47
2023-03-07T02:09:35.306Z,16.43
2023-03-07T02:12:04.459Z,16.45
2023-03-07T02:14:32.594Z,16.43
2023-03-07T02:16:59.887Z,16.44
2023-03-07T02:19:43.620Z,16.46
2023-03-07T02:22:13.605Z,16.45
2023-03-07T02:24:53.223Z,16.43
2023-03-07T02:27:20.801Z,16.45
2023-03-07T02:29:48.294Z,16.45
2023-03-07T02:32:15.728Z,16.43
2023-03-07T02:34:43.963Z,16.44
2023-03-07T02:37:15.743Z,16.43
2023-03-07T02:39:45.170Z,16.45
2023-03-07T02:42:18.657Z,16.42
2023-03-07T02:44:47.201Z,16.40
2023-03-07T02:47:14.460Z,16.42
2023-03-07T02:49:42.151Z,16.42
2023-03-07T02:52:09.451Z,16.41
2023-03-07T02:54:36.988Z,16.41
2023-03-07T02:57:04.598Z,16.42
2023-03-07T02:59:32.753Z,16.40
2023-03-07T03:02:00.637Z,16.40
2023-03-07T03:04:28.352Z,16.40
2023-03-07T03:06:55.687Z,16.40
2023-03-07T03:09:23.576Z,16.40
2023-03-07T03:11:50.813Z,16.41
2023-03-07T03:14:18.492Z,16.38
2023-03-07T03:16:45.888Z,16.39
2023-03-07T03:19:13.447Z,16.38
2023-03-07T03:21:41.968Z,16.40
2023-03-07T03:24:10.564Z,16.40
2023-03-07T03:26:38.481Z,16.38
2023-03-07T03:29:06.454Z,16.38
2023-03-07T03:31:34.920Z,16.38
2023-03-07T03:34:02.540Z,16.40
2023-03-07T03:36:29.797Z,16.37
2023-03-07T03:38:59.311Z,16.38
2023-03-07T03:41:26.633Z,16.38
2023-03-07T03:43:54.704Z,16.37
2023-03-07T03:46:22.036Z,16.37
2023-03-07T03:48:56.213Z,16.37
2023-03-07T03:51:24.312Z,16.36
2023-03-07T03:53:52.182Z,16.37
2023-03-07T03:56:22.107Z,16.36
2023-03-07T03:58:52.034Z,16.37
2023-03-07T04:01:20.859Z,16.36
2023-03-07T04:03:50.849Z,16.36
2023-03-07T04:06:21.252Z,16.36
2023-03-07T04:08:49.746Z,16.36
2023-03-07T04:11:17.039Z,16.35
2023-03-07T04:13:44.906Z,16.35
2023-03-07T04:16:12.445Z,16.35
2023-03-07T04:18:40.175Z,16.36
2023-03-07T04:21:07.509Z,16.35
2023-03-07T04:23:35.171Z,16.34
2023-03-07T04:26:06.398Z,16.35
2023-03-07T04:28:44.277Z,16.35
2023-03-07T04:31:17.883Z,16.34
2023-03-07T04:33:46.463Z,16.34
2023-03-07T04:36:16.291Z,16.34
2023-03-07T04:38:45.699Z,16.34
2023-03-07T04:41:15.407Z,16.34
2023-03-07T04:43:43.266Z,16.34
2023-03-07T04:46:12.126Z,16.33
2023-03-07T04:48:39.885Z,16.34
2023-03-07T04:51:07.184Z,16.33
2023-03-07T04:53:34.711Z,16.33
2023-03-07T04:56:04.086Z,16.31
2023-03-07T04:58:33.321Z,16.32
2023-03-07T05:01:02.059Z,16.31
2023-03-07T05:03:30.090Z,16.31
2023-03-07T05:06:05.182Z,16.32
2023-03-07T05:08:32.831Z,16.31
2023-03-07T05:11:00.382Z,16.32
2023-03-07T05:13:27.937Z,16.32
2023-03-07T05:15:57.560Z,16.31
2023-03-07T05:18:26.741Z,16.31
2023-03-07T05:20:54.011Z,16.29
2023-03-07T05:23:21.926Z,16.30
2023-03-07T05:25:50.014Z,16.29
2023-03-07T05:28:17.628Z,16.29
2023-03-07T05:30:45.961Z,16.28
2023-03-07T05:33:14.226Z,16.29
2023-03-07T05:35:41.819Z,16.29
2023-03-07T05:38:10.072Z,16.28
2023-03-07T05:40:37.812Z,16.29
2023-03-07T05:43:05.064Z,16.28
2023-03-07T05:45:32.701Z,16.28
2023-03-07T05:47:59.985Z,16.29
2023-03-07T05:50:27.734Z,16.30
2023-03-07T05:52:55.060Z,16.30
2023-03-07T05:55:22.669Z,16.30
2023-03-07T05:57:50.649Z,16.32
2023-03-07T06:00:18.838Z,16.31
2023-03-07T06:02:46.158Z,16.32
2023-03-07T06:05:14.224Z,16.31
2023-03-07T06:07:41.499Z,16.32
2023-03-07T06:10:10.212Z,16.29
2023-03-07T06:12:37.535Z,16.30
2023-03-07T06:15:05.888Z,16.30
2023-03-07T06:17:33.116Z,16.29
2023-03-07T06:20:00.901Z,16.28
2023-03-07T06:22:29.121Z,16.29
2023-03-07T06:24:56.644Z,16.29
2023-03-07T06:27:23.938Z,16.30
2023-03-07T06:29:51.439Z,16.32
2023-03-07T06:32:18.788Z,16.32
2023-03-07T06:34:47.316Z,16.31
2023-03-07T06:37:14.551Z,16.32
2023-03-07T06:39:42.118Z,16.33
2023-03-07T06:42:09.522Z,16.32
2023-03-07T06:44:37.138Z,16.34
2023-03-07T06:47:04.716Z,16.34
2023-03-07T06:49:32.291Z,16.35
2023-03-07T06:52:00.251Z,16.34
2023-03-07T06:54:27.791Z,16.36
2023-03-07T06:56:55.179Z,16.37
2023-03-07T06:59:22.883Z,16.37
2023-03-07T07:01:50.281Z,16.37
2023-03-07T07:04:18.049Z,16.38
2023-03-07T07:06:45.327Z,16.38
2023-03-07T07:09:14.203Z,16.39
2023-03-07T07:11:41.480Z,16.39
2023-03-07T07:14:09.075Z,16.41
2023-03-07T07:16:36.528Z,16.42
2023-03-07T07:19:04.562Z,16.41
2023-03-07T07:21:32.046Z,16.43
2023-03-07T07:23:59.623Z,16.43
2023-03-07T07:26:26.994Z,16.45
2023-03-07T07:28:54.559Z,16.44
2023-03-07T07:31:21.946Z,16.45
2023-03-07T07:33:49.586Z,16.45
2023-03-07T07:36:16.834Z,16.47
2023-03-07T07:38:44.397Z,16.47
2023-03-07T07:41:11.713Z,16.49
2023-03-07T07:43:39.283Z,16.49
2023-03-07T07:46:06.614Z,16.49
2023-03-07T07:48:34.249Z,16.50
2023-03-07T07:51:05.655Z,16.49
2023-03-07T07:53:33.562Z,16.47
2023-03-07T07:56:00.787Z,16.47
2023-03-07T07:58:28.329Z,16.46
2023-03-07T08:00:56.917Z,16.45
2023-03-07T08:03:24.583Z,16.47
2023-03-07T08:05:52.038Z,16.46
2023-03-07T08:08:19.882Z,16.45
2023-03-07T08:10:47.640Z,16.45
2023-03-07T08:13:17.429Z,16.44
2023-03-07T08:15:44.871Z,16.45
2023-03-07T08:18:12.631Z,16.44
2023-03-07T08:20:41.214Z,16.45
2023-03-07T08:23:08.757Z,16.45
2023-03-07T08:25:36.847Z,16.45
2023-03-07T08:28:05.414Z,16.46
2023-03-07T08:30:35.494Z,16.46
2023-03-07T08:33:03.659Z,16.48
2023-03-07T08:35:31.678Z,16.51
2023-03-07T08:38:00.576Z,16.51
2023-03-07T08:40:29.132Z,16.53
2023-03-07T08:42:59.207Z,16.53
2023-03-07T08:45:26.850Z,16.55
2023-03-07T08:47:55.467Z,16.55
2023-03-07T08:50:27.755Z,16.54
2023-03-07T08:52:55.400Z,16.56
2023-03-07T08:55:22.660Z,16.55
2023-03-07T08:57:51.163Z,16.57
2023-03-07T09:00:18.957Z,16.57
2023-03-07T09:02:46.562Z,16.56
2023-03-07T09:05:14.741Z,16.57
2023-03-07T09:07:43.075Z,16.58
2023-03-07T09:10:11.661Z,16.58
2023-03-07T09:12:39.398Z,16.58
2023-03-07T09:15:08.601Z,16.58
2023-03-07T09:17:36.097Z,16.58
2023-03-07T09:20:04.684Z,16.59
2023-03-07T09:22:32.555Z,16.59
2023-03-07T09:24:59.965Z,16.60
2023-03-07T09:27:27.871Z,16.60
2023-03-07T09:29:55.148Z,16.61
2023-03-07T09:32:23.966Z,16.59
2023-03-07T09:34:53.054Z,16.60
2023-03-07T09:37:20.564Z,16.60
2023-03-07T09:39:50.183Z,16.59
2023-03-07T09:42:27.466Z,16.59
2023-03-07T09:45:17.341Z,16.61
2023-03-07T09:48:15.477Z,16.60
2023-03-07T09:51:10.342Z,16.59
2023-03-07T09:53:43.094Z,16.61
2023-03-07T09:56:19.612Z,16.60
2023-03-07T09:58:54.888Z,16.62
2023-03-07T10:01:26.727Z,16.63
2023-03-07T10:04:02.024Z,16.63
2023-03-07T10:06:39.900Z,16.59
2023-03-07T10:09:14.087Z,16.57
2023-03-07T10:12:19.196Z,16.57
2023-03-07T10:15:09.237Z,16.54
2023-03-07T10:18:08.911Z,16.54
2023-03-07T10:20:44.917Z,16.55
2023-03-07T10:23:30.992Z,16.53
2023-03-07T10:26:23.244Z,16.53
2023-03-07T10:28:50.875Z,16.53
2023-03-07T10:31:39.314Z,16.55
2023-03-07T10:34:30.774Z,16.53
2023-03-07T10:37:10.921Z,16.55
2023-03-07T10:39:46.910Z,16.52
2023-03-07T10:42:17.329Z,16.53
2023-03-07T10:44:46.125Z,16.53
2023-03-07T10:47:25.253Z,16.54
2023-03-07T10:50:18.866Z,16.54
2023-03-07T10:52:53.635Z,16.55
2023-03-07T10:55:39.817Z,16.57
2023-03-07T10:58:14.268Z,16.54
2023-03-07T11:00:44.376Z,16.57
2023-03-07T11:03:26.601Z,16.58
2023-03-07T11:05:54.830Z,16.57
2023-03-07T11:08:33.654Z,16.58
2023-03-07T11:11:03.213Z,16.57
2023-03-07T11:13:31.794Z,16.58
2023-03-07T11:16:19.233Z,16.59
2023-03-07T11:18:46.948Z,16.59
2023-03-07T11:21:29.002Z,16.60
2023-03-07T11:24:06.006Z,16.59
2023-03-07T11:26:39.846Z,16.58
2023-03-07T11:29:14.756Z,16.58
2023-03-07T11:31:56.938Z,16.58
2023-03-07T11:34:32.874Z,16.57
2023-03-07T11:37:16.182Z,16.58
2023-03-07T11:39:49.039Z,16.57
2023-03-07T11:42:23.952Z,16.57
2023-03-07T11:44:57.525Z,16.57
2023-03-07T11:47:27.800Z,16.57
2023-03-07T11:50:06.435Z,16.58
2023-03-07T11:52:43.864Z,16.58
2023-03-07T11:56:01.826Z,16.59
2023-03-07T11:59:06.285Z,16.59
2023-03-07T12:02:02.425Z,16.60
2023-03-07T12:04:42.469Z,16.61
2023-03-07T12:07:32.328Z,16.62
2023-03-07T12:10:07.552Z,16.63
2023-03-07T12:12:53.278Z,16.63
2023-03-07T12:15:46.560Z,16.64
2023-03-07T12:18:44.004Z,16.65
2023-03-07T12:21:17.329Z,16.66
2023-03-07T12:24:14.838Z,16.67
2023-03-07T12:27:26.510Z,16.71
2023-03-07T12:30:01.530Z,16.71
2023-03-07T12:32:32.914Z,16.72
2023-03-07T12:35:24.648Z,16.70
2023-03-07T12:37:55.768Z,16.70
2023-03-07T12:40:35.339Z,16.72
2023-03-07T12:43:15.035Z,16.73
2023-03-07T12:45:53.795Z,16.71
2023-03-07T12:49:09.757Z,16.73
2023-03-07T12:51:41.834Z,16.72
2023-03-07T12:54:15.341Z,16.72
2023-03-07T12:57:01.439Z,16.73
2023-03-07T12:59:32.392Z,16.77
2023-03-07T13:02:13.416Z,16.77
2023-03-07T13:04:44.975Z,16.81
2023-03-07T13:07:18.140Z,16.81
2023-03-07T13:09:47.412Z,16.82
2023-03-07T13:12:16.159Z,16.86
2023-03-07T13:15:05.117Z,16.83
2023-03-07T13:17:35.348Z,16.83
2023-03-07T13:20:23.501Z,16.84
2023-03-07T13:22:51.325Z,16.83
2023-03-07T13:25:37.600Z,16.86
2023-03-07T13:28:44.918Z,16.88
2023-03-07T13:31:20.995Z,16.86
2023-03-07T13:33:48.554Z,16.85
2023-03-07T13:36:37.781Z,16.85
2023-03-07T13:39:53.321Z,16.84
2023-03-07T13:42:49.120Z,16.85
2023-03-07T13:45:38.254Z,16.86
2023-03-07T13:48:12.027Z,16.87
2023-03-07T13:51:00.127Z,16.88
2023-03-07T13:53:41.585Z,16.88
2023-03-07T13:56:15.065Z,16.88
2023-03-07T13:59:04.085Z,16.91
2023-03-07T14:01:34.757Z,16.91
2023-03-07T14:04:39.848Z,16.95
2023-03-07T14:07:31.829Z,16.97
2023-03-07T14:10:26.324Z,16.95
2023-03-07T14:13:09.364Z,16.99
2023-03-07T14:15:54.561Z,17.01
2023-03-07T14:18:21.933Z,17.02
2023-03-07T14:21:15.800Z,17.00
2023-03-07T14:24:07.031Z,17.00
2023-03-07T14:26:39.120Z,17.02
2023-03-07T14:29:22.431Z,17.05
2023-03-07T14:31:53.187Z,17.05
2023-03-07T14:34:35.856Z,17.03
2023-03-07T14:37:07.924Z,17.07
2023-03-07T14:39:53.199Z,17.03
2023-03-07T14:42:40.183Z,17.07
2023-03-07T14:45:14.015Z,17.07
2023-03-07T14:47:53.117Z,17.08
2023-03-07T14:50:25.473Z,17.07
2023-03-07T14:52:59.220Z,17.05
2023-03-07T14:55:35.325Z,17.08
2023-03-07T14:58:02.752Z,17.08
2023-03-07T15:00:30.570Z,17.07
2023-03-07T15:03:04.281Z,17.08
2023-03-07T15:05:36.885Z,17.11
2023-03-07T15:08:16.587Z,17.09
2023-03-07T15:10:48.024Z,17.09
2023-03-07T15:13:33.416Z,17.10
2023-03-07T15:16:06.106Z,17.09
2023-03-07T15:18:36.047Z,17.08
2023-03-07T15:21:06.153Z,17.09
2023-03-07T15:23:33.800Z,17.10
2023-03-07T15:26:10.779Z,17.08
2023-03-07T15:28:41.094Z,17.07
2023-03-07T15:31:10.347Z,17.07
2023-03-07T15:33:37.665Z,17.07
2023-03-07T15:36:11.470Z,17.05
2023-03-07T15:38:48.623Z,17.05
2023-03-07T15:41:37.186Z,17.06
2023-03-07T15:44:17.721Z,17.03
2023-03-07T15:46:53.523Z,17.03
2023-03-07T15:49:28.977Z,17.04
2023-03-07T15:51:59.278Z,17.07
2023-03-07T15:54:39.358Z,17.07
2023-03-07T15:57:23.638Z,17.07
2023-03-07T16:00:01.986Z,17.08
2023-03-07T16:02:32.789Z,17.08
2023-03-07T16:05:05.569Z,17.06
2023-03-07T16:07:33.208Z,17.05
2023-03-07T16:10:00.593Z,17.03
2023-03-07T16:12:28.564Z,17.00
2023-03-07T16:14:56.756Z,17.01
2023-03-07T16:17:37.092Z,16.99
2023-03-07T16:20:14.584Z,16.95
2023-03-07T16:22:44.516Z,16.99
2023-03-07T16:25:11.949Z,16.96
2023-03-07T16:27:40.913Z,16.97
2023-03-07T16:30:13.270Z,16.96
2023-03-07T16:32:40.919Z,16.96
2023-03-07T16:35:34.716Z,16.94
2023-03-07T16:38:02.331Z,16.94
2023-03-07T16:40:31.091Z,16.94
2023-03-07T16:42:58.937Z,16.92
2023-03-07T16:45:28.970Z,16.94
2023-03-07T16:48:01.224Z,16.96
2023-03-07T16:50:31.788Z,16.96
2023-03-07T16:52:59.730Z,16.97
2023-03-07T16:55:27.264Z,16.95
2023-03-07T16:57:58.797Z,16.96
2023-03-07T17:00:27.676Z,16.97
2023-03-07T17:02:58.969Z,16.99
2023-03-07T17:05:29.437Z,16.99
2023-03-07T17:07:58.821Z,16.98
2023-03-07T17:10:27.050Z,16.99
2023-03-07T17:13:00.045Z,16.98
2023-03-07T17:15:30.604Z,16.99
2023-03-07T17:18:00.608Z,16.97
2023-03-07T17:20:28.507Z,16.98
2023-03-07T17:22:56.187Z,16.98
2023-03-07T17:25:23.993Z,16.96
2023-03-07T17:28:00.052Z,16.95
2023-03-07T17:30:29.768Z,16.95
2023-03-07T17:32:58.184Z,16.96
2023-03-07T17:35:26.154Z,16.94
2023-03-07T17:37:54.541Z,16.95
2023-03-07T17:40:22.383Z,16.94
2023-03-07T17:42:51.711Z,16.92
2023-03-07T17:45:19.745Z,16.91
2023-03-07T17:47:54.463Z,16.93
2023-03-07T17:50:25.649Z,16.93
2023-03-07T17:52:56.437Z,16.91
2023-03-07T17:55:26.431Z,16.90
2023-03-07T17:57:54.165Z,16.92
2023-03-07T18:00:22.988Z,16.91
2023-03-07T18:02:51.001Z,16.90
2023-03-07T18:05:19.292Z,16.90
2023-03-07T18:07:47.414Z,16.89
2023-03-07T18:10:16.332Z,16.90
2023-03-07T18:12:44.974Z,16.89
2023-03-07T18:15:16.467Z,16.88
2023-03-07T18:17:48.764Z,16.89
2023-03-07T18:20:21.673Z,16.91
2023-03-07T18:22:50.353Z,16.88
2023-03-07T18:25:19.201Z,16.89
2023-03-07T18:27:48.010Z,16.86
2023-03-07T18:30:16.469Z,16.85
2023-03-07T18:32:45.181Z,16.85
2023-03-07T18:35:15.776Z,16.84
2023-03-07T18:37:45.361Z,16.84
2023-03-07T18:40:14.546Z,16.84
2023-03-07T18:42:42.831Z,16.85
2023-03-07T18:45:11.216Z,16.84
2023-03-07T18:47:39.362Z,16.84
2023-03-07T18:50:09.006Z,16.83
2023-03-07T18:52:37.033Z,16.83
2023-03-07T18:55:05.164Z,16.83
2023-03-07T18:57:34.282Z,16.85
2023-03-07T19:00:02.119Z,16.82
2023-03-07T19:02:30.264Z,16.81
2023-03-07T19:04:58.228Z,16.81
2023-03-07T19:07:27.849Z,16.80
2023-03-07T19:09:55.300Z,16.80
2023-03-07T19:12:23.330Z,16.82
2023-03-07T19:14:50.877Z,16.80
2023-03-07T19:17:18.814Z,16.80
2023-03-07T19:19:47.353Z,16.81
2023-03-07T19:22:15.245Z,16.79
2023-03-07T19:24:43.331Z,16.79
2023-03-07T19:27:10.882Z,16.79
2023-03-07T19:29:38.704Z,16.82
2023-03-07T19:32:06.387Z,16.83
2023-03-07T19:34:33.728Z,16.84
2023-03-07T19:37:01.407Z,16.83
2023-03-07T19:39:29.568Z,16.84
2023-03-07T19:41:57.326Z,16.84
2023-03-07T19:44:24.880Z,16.88
2023-03-07T19:46:52.877Z,16.83
2023-03-07T19:49:20.535Z,16.81
2023-03-07T19:51:48.179Z,16.80
2023-03-07T19:54:15.653Z,16.80
2023-03-07T19:56:45.523Z,16.78
2023-03-07T19:59:13.301Z,16.80
2023-03-07T20:01:41.167Z,16.81
2023-03-07T20:04:11.263Z,16.80
2023-03-07T20:06:40.398Z,16.78
2023-03-07T20:09:09.248Z,16.80
2023-03-07T20:11:38.404Z,16.77
2023-03-07T20:14:05.991Z,16.78
2023-03-07T20:16:34.193Z,16.77
2023-03-07T20:19:04.259Z,16.78
2023-03-07T20:21:33.076Z,16.78
2023-03-07T20:24:00.524Z,16.77
2023-03-07T20:26:31.663Z,16.78
2023-03-07T20:29:00.204Z,16.75
2023-03-07T20:31:28.550Z,16.78
2023-03-07T20:33:58.780Z,16.78
2023-03-07T20:36:32.131Z,16.77
2023-03-07T20:39:02.338Z,16.78
2023-03-07T20:41:32.478Z,16.75
2023-03-07T20:44:02.516Z,16.77
2023-03-07T20:46:31.207Z,16.78
2023-03-07T20:48:59.972Z,16.77
2023-03-07T20:51:30.688Z,16.77
2023-03-07T20:54:00.351Z,16.77
2023-03-07T20:56:30.784Z,16.74
2023-03-07T20:58:58.861Z,16.76
2023-03-07T21:01:29.014Z,16.75
2023-03-07T21:03:59.172Z,16.76
2023-03-07T21:06:26.871Z,16.76
2023-03-07T21:08:54.185Z,16.75
2023-03-07T21:11:21.802Z,16.77
2023-03-07T21:13:49.870Z,16.77
2023-03-07T21:16:22.934Z,16.75
2023-03-07T21:18:50.685Z,16.76
2023-03-07T21:21:22.185Z,16.77
2023-03-07T21:23:49.601Z,16.78
2023-03-07T21:26:22.315Z,16.75
2023-03-07T21:28:53.113Z,16.75
2023-03-07T21:31:23.243Z,16.74
2023-03-07T21:33:58.826Z,16.75
2023-03-07T21:36:29.348Z,16.75
2023-03-07T21:38:57.309Z,16.73
2023-03-07T21:41:25.310Z,16.73
2023-03-07T21:43:54.566Z,16.73
2023-03-07T21:46:22.544Z,16.74
2023-03-07T21:48:50.507Z,16.74
2023-03-07T21:51:18.827Z,16.75
2023-03-07T21:53:46.189Z,16.75
2023-03-07T21:56:18.795Z,16.74
2023-03-07T21:58:49.937Z,16.75
2023-03-07T22:01:22.159Z,16.75
2023-03-07T22:03:53.033Z,16.74
2023-03-07T22:06:21.324Z,16.75
2023-03-07T22:08:48.575Z,16.74
2023-03-07T22:11:16.247Z,16.74
2023-03-07T22:13:43.716Z,16.73
2023-03-07T22:16:13.667Z,16.73
2023-03-07T22:18:41.095Z,16.73
2023-03-07T22:21:11.564Z,16.74
2023-03-07T22:23:38.810Z,16.74
2023-03-07T22:26:08.640Z,16.73
2023-03-07T22:28:38.058Z,16.73
2023-03-07T22:31:10.717Z,16.73
2023-03-07T22:33:38.182Z,16.73
2023-03-07T22:36:07.703Z,16.72
2023-03-07T22:38:35.512Z,16.72
2023-03-07T22:41:17.104Z,16.71
2023-03-07T22:43:45.179Z,16.71
2023-03-07T22:46:13.300Z,16.73
2023-03-07T22:48:41.019Z,16.72
2023-03-07T22:51:17.777Z,16.72
2023-03-07T22:53:46.165Z,16.73
2023-03-07T22:56:16.648Z,16.73
2023-03-07T22:58:44.632Z,16.71
2023-03-07T23:01:17.753Z,16.71
2023-03-07T23:03:46.101Z,16.71
2023-03-07T23:06:13.941Z,16.70
2023-03-07T23:08:50.235Z,16.71
2023-03-07T23:11:19.306Z,16.71
2023-03-07T23:13:47.100Z,16.71
2023-03-07T23:16:17.662Z,16.72
2023-03-07T23:18:46.253Z,16.72
2023-03-07T23:21:16.166Z,16.71
2023-03-07T23:23:44.533Z,16.71
2023-03-07T23:26:20.803Z,16.71
2023-03-07T23:28:48.563Z,16.69
2023-03-07T23:31:23.299Z,16.70
2023-03-07T23:33:54.451Z,16.72
2023-03-07T23:36:21.994Z,16.71
2023-03-07T23:38:49.510Z,16.73
2023-03-07T23:41:17.100Z,16.72
2023-03-07T23:43:46.323Z,16.71
2023-03-07T23:46:13.850Z,16.70
2023-03-07T23:48:41.218Z,16.69
2023-03-07T23:51:08.981Z,16.69
2023-03-07T23:53:36.353Z,16.69
2023-03-07T23:56:09.026Z,16.70
2023-03-07T23:58:36.823Z,16.67
